sensor_id;sensor_type;location;lat;lon;timestamp;temperature;humidity
10312;DHT22;5201;48.776;9.128;2022-12-18T00:01:57;-4.10;99.90
10312;DHT22;5201;48.776;9.128;2022-12-18T00:04:25;-4.00;99.90
10312;DHT22;5201;48.776;9.128;2022-12-18T00:06:51;-4.00;99.90
10312;DHT22;5201;48.776;9.128;2022-12-18T00:09:18;-4.00;99.90
10312;DHT22;5201;48.776;9.128;2022-12-18T00:11:44;-4.00;99.90
10312;DHT22;5201;48.776;9.128;2022-12-18T00:14:12;-4.10;99.90
10312;DHT22;5201;48.776;9.128;2022-12-18T00:16:38;-4.10;99.90
10312;DHT22;5201;48.776;9.128;2022-12-18T00:19:04;-4.00;99.90
10312;DHT22;5201;48.776;9.128;2022-12-18T00:21:33;-3.90;99.90
10312;DHT22;5201;48.776;9.128;2022-12-18T00:23:59;-4.00;99.90
10312;DHT22;5201;48.776;9.128;2022-12-18T00:26:30;-4.10;99.90
10312;DHT22;5201;48.776;9.128;2022-12-18T00:29:02;-4.10;99.90
10312;DHT22;5201;48.776;9.128;2022-12-18T00:31:28;-4.10;99.90
10312;DHT22;5201;48.776;9.128;2022-12-18T00:33:55;-4.20;99.90
10312;DHT22;5201;48.776;9.128;2022-12-18T00:36:32;-4.30;99.90
10312;DHT22;5201;48.776;9.128;2022-12-18T00:38:59;-4.30;99.90
10312;DHT22;5201;48.776;9.128;2022-12-18T00:41:26;-4.20;99.90
10312;DHT22;5201;48.776;9.128;2022-12-18T00:44:12;-4.10;99.90
10312;DHT22;5201;48.776;9.128;2022-12-18T00:46:38;-3.70;99.90
10312;DHT22;5201;48.776;9.128;2022-12-18T00:49:06;-4.20;99.90
10312;DHT22;5201;48.776;9.128;2022-12-18T00:51:32;-4.20;99.90
10312;DHT22;5201;48.776;9.128;2022-12-18T00:53:58;-4.10;99.90
10312;DHT22;5201;48.776;9.128;2022-12-18T00:56:24;-4.40;99.90
10312;DHT22;5201;48.776;9.128;2022-12-18T00:58:49;-4.40;99.90
10312;DHT22;5201;48.776;9.128;2022-12-18T01:01:15;-4.60;99.90
10312;DHT22;5201;48.776;9.128;2022-12-18T01:03:40;-4.70;99.90
10312;DHT22;5201;48.776;9.128;2022-12-18T01:06:07;-4.70;99.90
10312;DHT22;5201;48.776;9.128;2022-12-18T01:08:33;-4.80;99.90
10312;DHT22;5201;48.776;9.128;2022-12-18T01:10:59;-5.10;99.90
10312;DHT22;5201;48.776;9.128;2022-12-18T01:13:24;-5.50;99.90
10312;DHT22;5201;48.776;9.128;2022-12-18T01:15:50;-5.90;99.90
10312;DHT22;5201;48.776;9.128;2022-12-18T01:18:16;-6.10;99.90
10312;DHT22;5201;48.776;9.128;2022-12-18T01:20:42;-6.30;99.90
10312;DHT22;5201;48.776;9.128;2022-12-18T01:23:08;-6.40;99.90
10312;DHT22;5201;48.776;9.128;2022-12-18T01:25:35;-6.30;99.90
10312;DHT22;5201;48.776;9.128;2022-12-18T01:28:01;-6.30;99.90
10312;DHT22;5201;48.776;9.128;2022-12-18T01:30:27;-6.30;99.90
10312;DHT22;5201;48.776;9.128;2022-12-18T01:32:53;-6.20;99.90
10312;DHT22;5201;48.776;9.128;2022-12-18T01:35:19;-6.10;99.90
10312;DHT22;5201;48.776;9.128;2022-12-18T01:37:44;-6.00;99.90
10312;DHT22;5201;48.776;9.128;2022-12-18T01:40:10;-5.90;99.90
10312;DHT22;5201;48.776;9.128;2022-12-18T01:42:36;-5.70;99.90
10312;DHT22;5201;48.776;9.128;2022-12-18T01:45:05;-5.60;99.90
10312;DHT22;5201;48.776;9.128;2022-12-18T01:50:29;-5.60;99.90
10312;DHT22;5201;48.776;9.128;2022-12-18T01:53:06;-5.70;99.90
10312;DHT22;5201;48.776;9.128;2022-12-18T01:55:40;-5.70;99.90
10312;DHT22;5201;48.776;9.128;2022-12-18T01:58:08;-5.50;99.90
10312;DHT22;5201;48.776;9.128;2022-12-18T02:00:33;-5.40;99.90
10312;DHT22;5201;48.776;9.128;2022-12-18T02:02:59;-5.40;99.90
10312;DHT22;5201;48.776;9.128;2022-12-18T02:05:48;-5.50;99.90
10312;DHT22;5201;48.776;9.128;2022-12-18T02:08:33;-5.40;99.90
10312;DHT22;5201;48.776;9.128;2022-12-18T02:11:05;-5.50;99.90
10312;DHT22;5201;48.776;9.128;2022-12-18T02:18:56;-5.10;99.90
10312;DHT22;5201;48.776;9.128;2022-12-18T02:21:45;-5.00;99.90
10312;DHT22;5201;48.776;9.128;2022-12-18T02:24:33;-4.80;99.90
10312;DHT22;5201;48.776;9.128;2022-12-18T02:27:03;-4.80;99.90
10312;DHT22;5201;48.776;9.128;2022-12-18T02:29:45;-4.70;99.90
10312;DHT22;5201;48.776;9.128;2022-12-18T02:32:15;-4.90;99.90
10312;DHT22;5201;48.776;9.128;2022-12-18T02:34:43;-5.00;99.90
10312;DHT22;5201;48.776;9.128;2022-12-18T02:37:12;-4.80;99.90
10312;DHT22;5201;48.776;9.128;2022-12-18T02:39:41;-4.70;99.90
10312;DHT22;5201;48.776;9.128;2022-12-18T02:42:07;-4.60;99.90
10312;DHT22;5201;48.776;9.128;2022-12-18T02:44:44;-4.60;99.90
10312;DHT22;5201;48.776;9.128;2022-12-18T02:47:12;-4.50;99.90
10312;DHT22;5201;48.776;9.128;2022-12-18T02:55:37;-4.50;99.90
10312;DHT22;5201;48.776;9.128;2022-12-18T02:58:27;-4.50;99.90
10312;DHT22;5201;48.776;9.128;2022-12-18T03:01:01;-4.60;99.90
10312;DHT22;5201;48.776;9.128;2022-12-18T03:06:21;-4.60;99.90
10312;DHT22;5201;48.776;9.128;2022-12-18T03:08:51;-4.70;99.90
10312;DHT22;5201;48.776;9.128;2022-12-18T03:11:19;-4.80;99.90
10312;DHT22;5201;48.776;9.128;2022-12-18T03:14:06;-5.10;99.90
10312;DHT22;5201;48.776;9.128;2022-12-18T03:16:34;-5.10;99.90
10312;DHT22;5201;48.776;9.128;2022-12-18T03:19:02;-5.00;99.90
10312;DHT22;5201;48.776;9.128;2022-12-18T03:21:40;-4.70;99.90
10312;DHT22;5201;48.776;9.128;2022-12-18T03:24:09;-4.60;99.90
10312;DHT22;5201;48.776;9.128;2022-12-18T03:26:37;-4.70;99.90
10312;DHT22;5201;48.776;9.128;2022-12-18T03:29:17;-4.70;99.90
10312;DHT22;5201;48.776;9.128;2022-12-18T03:31:50;-4.60;99.90
10312;DHT22;5201;48.776;9.128;2022-12-18T03:34:29;-4.80;99.90
10312;DHT22;5201;48.776;9.128;2022-12-18T03:36:55;-4.60;99.90
10312;DHT22;5201;48.776;9.128;2022-12-18T03:39:21;-5.00;99.90
10312;DHT22;5201;48.776;9.128;2022-12-18T03:41:55;-5.30;99.90
10312;DHT22;5201;48.776;9.128;2022-12-18T03:44:29;-5.70;99.90
10312;DHT22;5201;48.776;9.128;2022-12-18T03:47:07;-3.90;99.90
10312;DHT22;5201;48.776;9.128;2022-12-18T03:49:48;-6.30;99.90
10312;DHT22;5201;48.776;9.128;2022-12-18T03:52:30;-6.60;99.90
10312;DHT22;5201;48.776;9.128;2022-12-18T03:54:58;-6.80;99.90
10312;DHT22;5201;48.776;9.128;2022-12-18T03:57:27;-7.10;99.90
10312;DHT22;5201;48.776;9.128;2022-12-18T04:00:20;-7.20;99.90
10312;DHT22;5201;48.776;9.128;2022-12-18T04:02:51;-7.30;99.90
10312;DHT22;5201;48.776;9.128;2022-12-18T04:05:18;-7.40;99.90
10312;DHT22;5201;48.776;9.128;2022-12-18T04:07:47;-7.30;99.90
10312;DHT22;5201;48.776;9.128;2022-12-18T04:10:14;-7.30;99.90
10312;DHT22;5201;48.776;9.128;2022-12-18T04:12:41;-7.30;99.90
10312;DHT22;5201;48.776;9.128;2022-12-18T04:15:08;-7.30;99.90
10312;DHT22;5201;48.776;9.128;2022-12-18T04:17:33;-7.30;99.90
10312;DHT22;5201;48.776;9.128;2022-12-18T04:19:59;-7.50;99.90
10312;DHT22;5201;48.776;9.128;2022-12-18T04:22:25;-7.30;99.90
10312;DHT22;5201;48.776;9.128;2022-12-18T04:24:50;-7.60;99.90
10312;DHT22;5201;48.776;9.128;2022-12-18T04:27:16;-7.60;99.90
10312;DHT22;5201;48.776;9.128;2022-12-18T04:29:42;-7.50;99.90
10312;DHT22;5201;48.776;9.128;2022-12-18T04:32:08;-7.30;99.90
10312;DHT22;5201;48.776;9.128;2022-12-18T04:34:33;-7.20;99.90
10312;DHT22;5201;48.776;9.128;2022-12-18T04:36:59;-7.30;99.90
10312;DHT22;5201;48.776;9.128;2022-12-18T04:39:25;-7.30;99.90
10312;DHT22;5201;48.776;9.128;2022-12-18T04:41:50;-7.40;99.90
10312;DHT22;5201;48.776;9.128;2022-12-18T04:44:17;-7.40;99.90
10312;DHT22;5201;48.776;9.128;2022-12-18T04:46:42;-7.50;99.90
10312;DHT22;5201;48.776;9.128;2022-12-18T04:49:08;-7.20;99.90
10312;DHT22;5201;48.776;9.128;2022-12-18T04:51:36;-7.00;99.90
10312;DHT22;5201;48.776;9.128;2022-12-18T04:54:01;-6.80;99.90
10312;DHT22;5201;48.776;9.128;2022-12-18T04:56:27;-6.90;99.90
10312;DHT22;5201;48.776;9.128;2022-12-18T04:58:53;-6.80;99.90
10312;DHT22;5201;48.776;9.128;2022-12-18T05:01:18;-6.70;99.90
10312;DHT22;5201;48.776;9.128;2022-12-18T05:03:44;-6.70;99.90
10312;DHT22;5201;48.776;9.128;2022-12-18T05:06:10;-6.60;99.90
10312;DHT22;5201;48.776;9.128;2022-12-18T05:08:35;-6.70;99.90
10312;DHT22;5201;48.776;9.128;2022-12-18T05:11:10;-6.60;99.90
10312;DHT22;5201;48.776;9.128;2022-12-18T05:13:37;-6.40;99.90
10312;DHT22;5201;48.776;9.128;2022-12-18T05:16:04;-6.00;99.90
10312;DHT22;5201;48.776;9.128;2022-12-18T05:18:30;-6.00;99.90
10312;DHT22;5201;48.776;9.128;2022-12-18T05:20:56;-6.10;99.90
10312;DHT22;5201;48.776;9.128;2022-12-18T05:23:23;-6.30;99.90
10312;DHT22;5201;48.776;9.128;2022-12-18T05:25:57;-6.50;99.90
10312;DHT22;5201;48.776;9.128;2022-12-18T05:28:25;-6.70;99.90
10312;DHT22;5201;48.776;9.128;2022-12-18T05:30:52;-6.70;99.90
10312;DHT22;5201;48.776;9.128;2022-12-18T05:33:19;-6.60;99.90
10312;DHT22;5201;48.776;9.128;2022-12-18T05:35:50;-6.60;99.90
10312;DHT22;5201;48.776;9.128;2022-12-18T05:38:16;-6.60;99.90
10312;DHT22;5201;48.776;9.128;2022-12-18T05:40:42;-6.50;99.90
10312;DHT22;5201;48.776;9.128;2022-12-18T05:43:08;-6.30;99.90
10312;DHT22;5201;48.776;9.128;2022-12-18T05:45:37;-6.30;99.90
10312;DHT22;5201;48.776;9.128;2022-12-18T05:48:03;-6.40;99.90
10312;DHT22;5201;48.776;9.128;2022-12-18T05:50:29;-6.60;99.90
10312;DHT22;5201;48.776;9.128;2022-12-18T05:52:55;-6.50;99.90
10312;DHT22;5201;48.776;9.128;2022-12-18T05:55:20;-6.50;99.90
10312;DHT22;5201;48.776;9.128;2022-12-18T05:57:46;-6.50;99.90
10312;DHT22;5201;48.776;9.128;2022-12-18T06:00:12;-6.40;99.90
10312;DHT22;5201;48.776;9.128;2022-12-18T06:02:38;-6.50;99.90
10312;DHT22;5201;48.776;9.128;2022-12-18T06:05:04;-6.50;99.90
10312;DHT22;5201;48.776;9.128;2022-12-18T06:07:29;-6.50;99.90
10312;DHT22;5201;48.776;9.128;2022-12-18T06:09:55;-6.60;99.90
10312;DHT22;5201;48.776;9.128;2022-12-18T06:12:20;-6.70;99.90
10312;DHT22;5201;48.776;9.128;2022-12-18T06:14:46;-6.90;99.90
10312;DHT22;5201;48.776;9.128;2022-12-18T06:17:12;-6.90;99.90
10312;DHT22;5201;48.776;9.128;2022-12-18T06:19:37;-6.90;99.90
10312;DHT22;5201;48.776;9.128;2022-12-18T06:22:03;-7.30;99.90
10312;DHT22;5201;48.776;9.128;2022-12-18T06:24:29;-7.20;99.90
10312;DHT22;5201;48.776;9.128;2022-12-18T06:26:55;-7.10;99.90
10312;DHT22;5201;48.776;9.128;2022-12-18T06:29:20;-6.90;99.90
10312;DHT22;5201;48.776;9.128;2022-12-18T06:31:46;-6.70;99.90
10312;DHT22;5201;48.776;9.128;2022-12-18T06:34:12;-6.50;99.90
10312;DHT22;5201;48.776;9.128;2022-12-18T06:36:37;-6.70;99.90
10312;DHT22;5201;48.776;9.128;2022-12-18T06:39:03;-6.90;99.90
10312;DHT22;5201;48.776;9.128;2022-12-18T06:41:29;-6.90;99.90
10312;DHT22;5201;48.776;9.128;2022-12-18T06:43:54;-6.80;99.90
10312;DHT22;5201;48.776;9.128;2022-12-18T06:46:20;-6.80;99.90
10312;DHT22;5201;48.776;9.128;2022-12-18T06:48:50;-6.90;99.90
10312;DHT22;5201;48.776;9.128;2022-12-18T06:51:20;-7.00;99.90
10312;DHT22;5201;48.776;9.128;2022-12-18T06:53:46;-6.90;99.90
10312;DHT22;5201;48.776;9.128;2022-12-18T06:56:12;-6.80;99.90
10312;DHT22;5201;48.776;9.128;2022-12-18T06:58:38;-6.70;99.90
10312;DHT22;5201;48.776;9.128;2022-12-18T07:01:06;-6.80;99.90
10312;DHT22;5201;48.776;9.128;2022-12-18T07:03:33;-6.80;99.90
10312;DHT22;5201;48.776;9.128;2022-12-18T07:05:58;-6.70;99.90
10312;DHT22;5201;48.776;9.128;2022-12-18T07:08:24;-6.50;99.90
10312;DHT22;5201;48.776;9.128;2022-12-18T07:10:50;-6.50;99.90
10312;DHT22;5201;48.776;9.128;2022-12-18T07:13:16;-6.60;99.90
10312;DHT22;5201;48.776;9.128;2022-12-18T07:15:43;-6.60;99.90
10312;DHT22;5201;48.776;9.128;2022-12-18T07:18:08;-6.70;99.90
10312;DHT22;5201;48.776;9.128;2022-12-18T07:20:34;-6.70;99.90
10312;DHT22;5201;48.776;9.128;2022-12-18T07:23:04;-6.60;99.90
10312;DHT22;5201;48.776;9.128;2022-12-18T07:25:36;-6.60;99.90
10312;DHT22;5201;48.776;9.128;2022-12-18T07:28:03;-6.60;99.90
10312;DHT22;5201;48.776;9.128;2022-12-18T07:30:29;-6.50;99.90
10312;DHT22;5201;48.776;9.128;2022-12-18T07:32:54;-6.50;99.90
10312;DHT22;5201;48.776;9.128;2022-12-18T07:35:20;-6.40;99.90
10312;DHT22;5201;48.776;9.128;2022-12-18T07:37:46;-6.10;99.90
10312;DHT22;5201;48.776;9.128;2022-12-18T07:40:12;-5.90;99.90
10312;DHT22;5201;48.776;9.128;2022-12-18T07:42:37;-5.70;99.90
10312;DHT22;5201;48.776;9.128;2022-12-18T07:45:04;-5.80;99.90
10312;DHT22;5201;48.776;9.128;2022-12-18T07:47:36;-5.80;99.90
10312;DHT22;5201;48.776;9.128;2022-12-18T07:50:03;-4.20;99.90
10312;DHT22;5201;48.776;9.128;2022-12-18T07:52:29;-5.80;99.90
10312;DHT22;5201;48.776;9.128;2022-12-18T07:54:54;-5.70;99.90
10312;DHT22;5201;48.776;9.128;2022-12-18T07:57:20;-5.70;99.90
10312;DHT22;5201;48.776;9.128;2022-12-18T07:59:46;-5.60;99.90
10312;DHT22;5201;48.776;9.128;2022-12-18T08:02:11;-5.60;99.90
10312;DHT22;5201;48.776;9.128;2022-12-18T08:04:37;-5.50;99.90
10312;DHT22;5201;48.776;9.128;2022-12-18T08:07:02;-5.40;99.90
10312;DHT22;5201;48.776;9.128;2022-12-18T08:09:28;-5.40;99.90
10312;DHT22;5201;48.776;9.128;2022-12-18T08:11:53;-5.30;99.90
10312;DHT22;5201;48.776;9.128;2022-12-18T08:14:19;-5.30;99.90
10312;DHT22;5201;48.776;9.128;2022-12-18T08:16:45;-5.30;99.90
10312;DHT22;5201;48.776;9.128;2022-12-18T08:19:11;-5.40;99.90
10312;DHT22;5201;48.776;9.128;2022-12-18T08:21:37;-5.40;99.90
10312;DHT22;5201;48.776;9.128;2022-12-18T08:24:02;-5.30;99.90
10312;DHT22;5201;48.776;9.128;2022-12-18T08:26:30;-5.20;99.90
10312;DHT22;5201;48.776;9.128;2022-12-18T08:28:57;-5.40;99.90
10312;DHT22;5201;48.776;9.128;2022-12-18T08:31:24;-5.40;99.90
10312;DHT22;5201;48.776;9.128;2022-12-18T08:33:51;-5.30;99.90
10312;DHT22;5201;48.776;9.128;2022-12-18T08:36:18;-5.30;99.90
10312;DHT22;5201;48.776;9.128;2022-12-18T08:38:43;-5.30;99.90
10312;DHT22;5201;48.776;9.128;2022-12-18T08:41:11;-5.30;99.90
10312;DHT22;5201;48.776;9.128;2022-12-18T08:43:37;-5.20;99.90
10312;DHT22;5201;48.776;9.128;2022-12-18T08:46:23;-5.20;99.90
10312;DHT22;5201;48.776;9.128;2022-12-18T08:48:53;-5.20;99.90
10312;DHT22;5201;48.776;9.128;2022-12-18T08:51:19;-5.10;99.90
10312;DHT22;5201;48.776;9.128;2022-12-18T08:53:45;-5.00;99.90
10312;DHT22;5201;48.776;9.128;2022-12-18T08:56:11;-5.00;99.90
10312;DHT22;5201;48.776;9.128;2022-12-18T08:58:37;-5.00;99.90
10312;DHT22;5201;48.776;9.128;2022-12-18T09:01:05;-4.90;99.90
10312;DHT22;5201;48.776;9.128;2022-12-18T09:03:31;-4.70;99.90
10312;DHT22;5201;48.776;9.128;2022-12-18T09:05:56;-4.60;99.90
10312;DHT22;5201;48.776;9.128;2022-12-18T09:08:22;-4.60;99.90
10312;DHT22;5201;48.776;9.128;2022-12-18T09:10:49;-4.60;99.90
10312;DHT22;5201;48.776;9.128;2022-12-18T09:13:15;-4.60;99.90
10312;DHT22;5201;48.776;9.128;2022-12-18T09:15:42;-4.70;99.90
10312;DHT22;5201;48.776;9.128;2022-12-18T09:18:09;-4.80;99.90
10312;DHT22;5201;48.776;9.128;2022-12-18T09:20:36;-4.70;99.90
10312;DHT22;5201;48.776;9.128;2022-12-18T09:23:02;-4.80;99.90
10312;DHT22;5201;48.776;9.128;2022-12-18T09:25:29;-4.70;99.90
10312;DHT22;5201;48.776;9.128;2022-12-18T09:28:11;-4.50;99.90
10312;DHT22;5201;48.776;9.128;2022-12-18T09:30:41;-4.50;99.90
10312;DHT22;5201;48.776;9.128;2022-12-18T09:33:08;-4.40;99.90
10312;DHT22;5201;48.776;9.128;2022-12-18T09:35:39;-4.30;99.90
10312;DHT22;5201;48.776;9.128;2022-12-18T09:38:06;-4.40;99.90
10312;DHT22;5201;48.776;9.128;2022-12-18T09:40:43;-4.30;99.90
10312;DHT22;5201;48.776;9.128;2022-12-18T09:43:16;-4.40;99.90
10312;DHT22;5201;48.776;9.128;2022-12-18T09:45:46;-4.30;99.90
10312;DHT22;5201;48.776;9.128;2022-12-18T09:48:40;-4.20;99.90
10312;DHT22;5201;48.776;9.128;2022-12-18T09:51:20;-4.00;99.90
10312;DHT22;5201;48.776;9.128;2022-12-18T09:53:51;-4.00;99.90
10312;DHT22;5201;48.776;9.128;2022-12-18T09:56:19;-3.90;99.90
10312;DHT22;5201;48.776;9.128;2022-12-18T09:59:02;-3.90;99.90
10312;DHT22;5201;48.776;9.128;2022-12-18T10:01:31;-3.80;99.90
10312;DHT22;5201;48.776;9.128;2022-12-18T10:03:57;-3.70;99.90
10312;DHT22;5201;48.776;9.128;2022-12-18T10:06:58;-3.60;99.90
10312;DHT22;5201;48.776;9.128;2022-12-18T10:09:34;-3.50;99.90
10312;DHT22;5201;48.776;9.128;2022-12-18T10:12:07;-3.50;99.90
10312;DHT22;5201;48.776;9.128;2022-12-18T10:17:17;-3.20;99.90
10312;DHT22;5201;48.776;9.128;2022-12-18T10:19:49;-3.30;99.90
10312;DHT22;5201;48.776;9.128;2022-12-18T10:27:55;-2.20;99.90
10312;DHT22;5201;48.776;9.128;2022-12-18T10:30:24;-3.40;99.90
10312;DHT22;5201;48.776;9.128;2022-12-18T10:32:51;-3.30;99.90
10312;DHT22;5201;48.776;9.128;2022-12-18T10:35:26;-3.20;99.90
10312;DHT22;5201;48.776;9.128;2022-12-18T10:40:36;-3.10;99.90
10312;DHT22;5201;48.776;9.128;2022-12-18T10:43:14;-3.00;99.90
10312;DHT22;5201;48.776;9.128;2022-12-18T10:45:41;-2.90;99.90
10312;DHT22;5201;48.776;9.128;2022-12-18T10:48:19;-2.80;99.90
10312;DHT22;5201;48.776;9.128;2022-12-18T10:50:48;-2.60;99.90
10312;DHT22;5201;48.776;9.128;2022-12-18T10:53:23;-2.50;99.90
10312;DHT22;5201;48.776;9.128;2022-12-18T10:55:52;-2.60;99.90
10312;DHT22;5201;48.776;9.128;2022-12-18T11:01:16;-2.80;99.90
10312;DHT22;5201;48.776;9.128;2022-12-18T11:06:22;-2.50;99.90
10312;DHT22;5201;48.776;9.128;2022-12-18T11:09:32;-2.40;99.90
10312;DHT22;5201;48.776;9.128;2022-12-18T11:11:53;-2.30;99.90
10312;DHT22;5201;48.776;9.128;2022-12-18T11:14:32;-2.30;99.90
10312;DHT22;5201;48.776;9.128;2022-12-18T11:16:59;-2.30;99.90
10312;DHT22;5201;48.776;9.128;2022-12-18T11:19:39;-2.30;99.90
10312;DHT22;5201;48.776;9.128;2022-12-18T11:22:25;-2.10;99.90
10312;DHT22;5201;48.776;9.128;2022-12-18T11:27:47;-1.50;99.90
10312;DHT22;5201;48.776;9.128;2022-12-18T11:32:59;-1.40;99.90
10312;DHT22;5201;48.776;9.128;2022-12-18T11:40:56;-1.00;99.90
10312;DHT22;5201;48.776;9.128;2022-12-18T11:43:33;-0.90;99.90
10312;DHT22;5201;48.776;9.128;2022-12-18T11:46:19;-0.90;99.90
10312;DHT22;5201;48.776;9.128;2022-12-18T11:49:20;-1.00;99.90
10312;DHT22;5201;48.776;9.128;2022-12-18T11:52:13;-1.00;99.90
10312;DHT22;5201;48.776;9.128;2022-12-18T11:54:52;-1.20;99.90
10312;DHT22;5201;48.776;9.128;2022-12-18T12:00:15;-0.90;99.90
10312;DHT22;5201;48.776;9.128;2022-12-18T12:06:08;-0.60;99.90
10312;DHT22;5201;48.776;9.128;2022-12-18T12:12:41;-0.90;99.90
10312;DHT22;5201;48.776;9.128;2022-12-18T12:14:39;-0.80;99.90
10312;DHT22;5201;48.776;9.128;2022-12-18T12:17:41;-0.80;99.90
10312;DHT22;5201;48.776;9.128;2022-12-18T12:20:20;-0.60;99.90
10312;DHT22;5201;48.776;9.128;2022-12-18T12:23:01;-1.00;99.90
10312;DHT22;5201;48.776;9.128;2022-12-18T12:34:01;-0.90;99.90
10312;DHT22;5201;48.776;9.128;2022-12-18T12:39:22;-1.00;99.90
10312;DHT22;5201;48.776;9.128;2022-12-18T12:41:54;-1.10;99.90
10312;DHT22;5201;48.776;9.128;2022-12-18T12:44:53;-1.00;99.90
10312;DHT22;5201;48.776;9.128;2022-12-18T12:47:25;-0.90;99.90
10312;DHT22;5201;48.776;9.128;2022-12-18T12:49:52;-1.10;99.90
10312;DHT22;5201;48.776;9.128;2022-12-18T12:52:49;-1.00;99.90
10312;DHT22;5201;48.776;9.128;2022-12-18T12:55:21;-0.90;99.90
10312;DHT22;5201;48.776;9.128;2022-12-18T12:58:05;-0.90;99.90
10312;DHT22;5201;48.776;9.128;2022-12-18T13:00:53;-0.80;99.90
10312;DHT22;5201;48.776;9.128;2022-12-18T13:03:43;-0.80;99.90
10312;DHT22;5201;48.776;9.128;2022-12-18T13:06:35;-0.80;99.90
10312;DHT22;5201;48.776;9.128;2022-12-18T13:09:02;-0.80;99.90
10312;DHT22;5201;48.776;9.128;2022-12-18T13:14:37;-0.80;99.90
10312;DHT22;5201;48.776;9.128;2022-12-18T13:17:16;-0.70;99.90
10312;DHT22;5201;48.776;9.128;2022-12-18T13:19:52;-0.70;99.90
10312;DHT22;5201;48.776;9.128;2022-12-18T13:22:51;-0.70;99.90
10312;DHT22;5201;48.776;9.128;2022-12-18T13:40:58;-0.80;99.90
10312;DHT22;5201;48.776;9.128;2022-12-18T13:43:41;-0.80;99.90
10312;DHT22;5201;48.776;9.128;2022-12-18T13:46:30;-0.70;99.90
10312;DHT22;5201;48.776;9.128;2022-12-18T13:51:59;-0.80;99.90
10312;DHT22;5201;48.776;9.128;2022-12-18T13:56:51;-0.90;99.90
10312;DHT22;5201;48.776;9.128;2022-12-18T13:59:23;-0.90;99.90
10312;DHT22;5201;48.776;9.128;2022-12-18T14:01:58;-0.90;99.90
10312;DHT22;5201;48.776;9.128;2022-12-18T14:04:29;-0.80;99.90
10312;DHT22;5201;48.776;9.128;2022-12-18T14:06:58;-0.80;99.90
10312;DHT22;5201;48.776;9.128;2022-12-18T14:09:30;-0.80;99.90
10312;DHT22;5201;48.776;9.128;2022-12-18T14:11:57;-0.80;99.90
10312;DHT22;5201;48.776;9.128;2022-12-18T14:14:48;-0.80;99.90
10312;DHT22;5201;48.776;9.128;2022-12-18T14:17:15;-0.80;99.90
10312;DHT22;5201;48.776;9.128;2022-12-18T14:19:46;-0.90;99.90
10312;DHT22;5201;48.776;9.128;2022-12-18T14:22:21;-0.90;99.90
10312;DHT22;5201;48.776;9.128;2022-12-18T14:24:51;0.10;99.90
10312;DHT22;5201;48.776;9.128;2022-12-18T14:27:30;-0.70;99.90
10312;DHT22;5201;48.776;9.128;2022-12-18T14:29:56;-0.80;99.90
10312;DHT22;5201;48.776;9.128;2022-12-18T14:32:24;-0.70;99.90
10312;DHT22;5201;48.776;9.128;2022-12-18T14:34:53;-0.80;99.90
10312;DHT22;5201;48.776;9.128;2022-12-18T14:37:26;-0.90;99.90
10312;DHT22;5201;48.776;9.128;2022-12-18T14:39:55;-0.90;99.90
10312;DHT22;5201;48.776;9.128;2022-12-18T14:42:22;-1.00;99.90
10312;DHT22;5201;48.776;9.128;2022-12-18T14:44:52;-1.00;99.90
10312;DHT22;5201;48.776;9.128;2022-12-18T14:47:17;-1.00;99.90
10312;DHT22;5201;48.776;9.128;2022-12-18T14:49:43;-1.10;99.90
10312;DHT22;5201;48.776;9.128;2022-12-18T14:52:36;-1.10;99.90
10312;DHT22;5201;48.776;9.128;2022-12-18T14:55:02;-0.90;99.90
10312;DHT22;5201;48.776;9.128;2022-12-18T14:57:36;-1.00;99.90
10312;DHT22;5201;48.776;9.128;2022-12-18T15:00:07;-1.00;99.90
10312;DHT22;5201;48.776;9.128;2022-12-18T15:02:40;-1.00;99.90
10312;DHT22;5201;48.776;9.128;2022-12-18T15:05:18;-0.90;99.90
10312;DHT22;5201;48.776;9.128;2022-12-18T15:07:46;-1.00;99.90
10312;DHT22;5201;48.776;9.128;2022-12-18T15:20:49;-1.30;99.90
10312;DHT22;5201;48.776;9.128;2022-12-18T15:23:24;-1.30;99.90
10312;DHT22;5201;48.776;9.128;2022-12-18T15:25:59;-1.40;99.90
10312;DHT22;5201;48.776;9.128;2022-12-18T15:33:31;-1.40;99.90
10312;DHT22;5201;48.776;9.128;2022-12-18T15:35:58;-1.50;99.90
10312;DHT22;5201;48.776;9.128;2022-12-18T15:38:24;-1.60;99.90
10312;DHT22;5201;48.776;9.128;2022-12-18T15:40:50;-1.60;99.90
10312;DHT22;5201;48.776;9.128;2022-12-18T15:43:17;-1.50;99.90
10312;DHT22;5201;48.776;9.128;2022-12-18T15:46:44;-1.50;99.90
10312;DHT22;5201;48.776;9.128;2022-12-18T15:48:46;-1.50;99.90
10312;DHT22;5201;48.776;9.128;2022-12-18T15:51:21;-1.50;99.90
10312;DHT22;5201;48.776;9.128;2022-12-18T15:53:50;-1.50;99.90
10312;DHT22;5201;48.776;9.128;2022-12-18T15:56:16;-1.50;99.90
10312;DHT22;5201;48.776;9.128;2022-12-18T15:59:01;-1.50;99.90
10312;DHT22;5201;48.776;9.128;2022-12-18T16:01:29;-1.50;99.90
10312;DHT22;5201;48.776;9.128;2022-12-18T16:03:55;-1.50;99.90
10312;DHT22;5201;48.776;9.128;2022-12-18T16:06:22;-1.50;99.90
10312;DHT22;5201;48.776;9.128;2022-12-18T16:08:48;-1.50;99.90
10312;DHT22;5201;48.776;9.128;2022-12-18T16:11:23;-1.60;99.90
10312;DHT22;5201;48.776;9.128;2022-12-18T16:14:12;-1.60;99.90
10312;DHT22;5201;48.776;9.128;2022-12-18T16:16:40;-1.70;99.90
10312;DHT22;5201;48.776;9.128;2022-12-18T16:19:07;-1.70;99.90
10312;DHT22;5201;48.776;9.128;2022-12-18T16:21:33;-1.60;99.90
10312;DHT22;5201;48.776;9.128;2022-12-18T16:23:59;-1.60;99.90
10312;DHT22;5201;48.776;9.128;2022-12-18T16:26:24;-1.30;99.90
10312;DHT22;5201;48.776;9.128;2022-12-18T16:28:50;-1.30;99.90
10312;DHT22;5201;48.776;9.128;2022-12-18T16:31:16;-1.20;99.90
10312;DHT22;5201;48.776;9.128;2022-12-18T16:33:42;-0.40;99.90
10312;DHT22;5201;48.776;9.128;2022-12-18T16:36:08;-1.20;99.90
10312;DHT22;5201;48.776;9.128;2022-12-18T16:38:34;-1.30;99.90
10312;DHT22;5201;48.776;9.128;2022-12-18T16:40:59;-1.30;99.90
10312;DHT22;5201;48.776;9.128;2022-12-18T16:43:44;-1.20;99.90
10312;DHT22;5201;48.776;9.128;2022-12-18T16:46:10;-1.30;99.90
10312;DHT22;5201;48.776;9.128;2022-12-18T16:48:36;-1.20;99.90
10312;DHT22;5201;48.776;9.128;2022-12-18T16:51:03;-1.30;99.90
10312;DHT22;5201;48.776;9.128;2022-12-18T16:53:30;-1.20;99.90
10312;DHT22;5201;48.776;9.128;2022-12-18T16:55:57;-1.20;99.90
10312;DHT22;5201;48.776;9.128;2022-12-18T16:58:23;-1.30;99.90
10312;DHT22;5201;48.776;9.128;2022-12-18T17:00:48;-1.40;99.90
10312;DHT22;5201;48.776;9.128;2022-12-18T17:03:14;-1.50;99.90
10312;DHT22;5201;48.776;9.128;2022-12-18T17:05:40;-1.60;99.90
10312;DHT22;5201;48.776;9.128;2022-12-18T17:08:05;-1.50;99.90
10312;DHT22;5201;48.776;9.128;2022-12-18T17:10:33;-1.60;99.90
10312;DHT22;5201;48.776;9.128;2022-12-18T17:12:59;-1.50;99.90
10312;DHT22;5201;48.776;9.128;2022-12-18T17:15:25;-1.50;99.90
10312;DHT22;5201;48.776;9.128;2022-12-18T17:17:51;-1.50;99.90
10312;DHT22;5201;48.776;9.128;2022-12-18T17:20:16;-1.50;99.90
10312;DHT22;5201;48.776;9.128;2022-12-18T17:22:42;-1.30;99.90
10312;DHT22;5201;48.776;9.128;2022-12-18T17:25:08;-1.20;99.90
10312;DHT22;5201;48.776;9.128;2022-12-18T17:27:33;-1.20;99.90
10312;DHT22;5201;48.776;9.128;2022-12-18T17:29:59;-1.20;99.90
10312;DHT22;5201;48.776;9.128;2022-12-18T17:32:24;-1.30;99.90
10312;DHT22;5201;48.776;9.128;2022-12-18T17:34:50;-1.50;99.90
10312;DHT22;5201;48.776;9.128;2022-12-18T17:37:16;-1.40;99.90
10312;DHT22;5201;48.776;9.128;2022-12-18T17:39:42;-1.40;99.90
10312;DHT22;5201;48.776;9.128;2022-12-18T17:42:09;-0.80;99.90
10312;DHT22;5201;48.776;9.128;2022-12-18T17:44:35;-1.40;99.90
10312;DHT22;5201;48.776;9.128;2022-12-18T17:47:01;-1.40;99.90
10312;DHT22;5201;48.776;9.128;2022-12-18T17:49:27;-1.30;99.90